createdAt,value
2019-05-19T00:00:41.683Z,7.30
2019-05-19T00:01:41.704Z,7.30
2019-05-19T00:02:41.695Z,7.30
2019-05-19T00:03:41.759Z,7.30
2019-05-19T00:04:41.716Z,7.30
2019-05-19T00:05:41.685Z,7.30
2019-05-19T00:06:41.763Z,7.30
2019-05-19T00:07:41.761Z,7.30
2019-05-19T00:08:41.702Z,7.30
2019-05-19T00:09:41.733Z,6.00
2019-05-19T00:10:41.639Z,6.00
2019-05-19T00:11:41.738Z,6.00
2019-05-19T00:12:41.681Z,6.00
2019-05-19T00:13:41.632Z,6.00
2019-05-19T00:14:41.634Z,6.00
2019-05-19T00:15:41.743Z,6.00
2019-05-19T00:16:41.739Z,6.00
2019-05-19T00:17:41.659Z,6.00
2019-05-19T00:18:41.662Z,6.00
2019-05-19T00:19:41.711Z,7.70
2019-05-19T00:20:41.719Z,7.70
2019-05-19T00:21:41.772Z,7.70
2019-05-19T00:22:41.770Z,7.70
2019-05-19T00:23:41.806Z,7.70
2019-05-19T00:24:41.772Z,7.70
2019-05-19T00:25:41.781Z,7.70
2019-05-19T00:26:41.779Z,7.70
2019-05-19T00:27:41.777Z,7.70
2019-05-19T00:28:41.775Z,7.70
2019-05-19T00:29:41.718Z,8.90
2019-05-19T00:30:41.778Z,8.90
2019-05-19T00:31:41.796Z,8.90
2019-05-19T00:32:41.781Z,8.90
2019-05-19T00:33:41.709Z,8.90
2019-05-19T00:34:41.743Z,8.90
2019-05-19T00:35:41.780Z,8.90
2019-05-19T00:36:41.733Z,8.90
2019-05-19T00:37:41.788Z,8.90
2019-05-19T00:38:41.783Z,8.90
2019-05-19T00:39:41.787Z,6.40
2019-05-19T00:40:41.741Z,6.40
2019-05-19T00:41:41.798Z,6.40
2019-05-19T00:42:41.847Z,6.40
2019-05-19T00:43:41.786Z,6.40
2019-05-19T00:44:41.787Z,6.40
2019-05-19T00:45:41.714Z,6.40
2019-05-19T00:46:41.787Z,6.40
2019-05-19T00:47:41.792Z,6.40
2019-05-19T00:48:41.734Z,6.40
2019-05-19T00:49:41.910Z,7.50
2019-05-19T00:50:41.906Z,7.50
2019-05-19T00:51:41.802Z,7.50
2019-05-19T00:52:41.804Z,7.50
2019-05-19T00:53:41.808Z,7.50
2019-05-19T00:54:41.722Z,7.50
2019-05-19T00:55:41.725Z,7.50
2019-05-19T00:56:41.798Z,7.50
2019-05-19T00:57:41.805Z,7.50
2019-05-19T00:58:41.801Z,7.50
2019-05-19T00:59:41.800Z,5.20
2019-05-19T01:00:41.720Z,5.20
2019-05-19T01:01:41.794Z,5.20
2019-05-19T01:02:41.720Z,5.20
2019-05-19T01:03:41.722Z,5.20
2019-05-19T01:04:41.797Z,5.20
2019-05-19T01:05:41.789Z,5.20
2019-05-19T01:06:41.720Z,5.20
2019-05-19T01:07:41.723Z,5.20
2019-05-19T01:08:41.794Z,5.20
2019-05-19T01:09:41.755Z,9.30
2019-05-19T01:10:41.807Z,9.30
2019-05-19T01:11:41.736Z,9.30
2019-05-19T01:12:41.809Z,9.30
2019-05-19T01:13:41.813Z,9.30
2019-05-19T01:14:41.815Z,9.30
2019-05-19T01:15:41.815Z,9.30
2019-05-19T01:16:41.810Z,9.30
2019-05-19T01:17:41.735Z,9.30
2019-05-19T01:18:41.797Z,9.30
2019-05-19T01:19:55.214Z,7.00
2019-05-19T01:20:41.684Z,7.00
2019-05-19T01:21:41.788Z,7.00
2019-05-19T01:22:41.751Z,7.00
2019-05-19T01:23:41.817Z,7.00
2019-05-19T01:24:41.737Z,7.00
2019-05-19T01:25:41.746Z,7.00
2019-05-19T01:26:41.748Z,7.00
2019-05-19T01:27:41.750Z,7.00
2019-05-19T01:28:41.793Z,7.00
2019-05-19T01:29:41.830Z,6.50
2019-05-19T01:30:41.835Z,6.50
2019-05-19T01:31:41.831Z,6.50
2019-05-19T01:32:41.823Z,6.50
2019-05-19T01:33:41.705Z,6.50
2019-05-19T01:34:41.826Z,6.50
2019-05-19T01:35:41.789Z,6.50
2019-05-19T01:36:41.839Z,6.50
2019-05-19T01:37:41.830Z,6.50
2019-05-19T01:38:41.756Z,6.50
2019-05-19T01:39:41.854Z,7.30
2019-05-19T01:40:41.813Z,7.30
2019-05-19T01:41:41.740Z,7.30
2019-05-19T01:42:41.766Z,7.30
2019-05-19T01:43:41.744Z,7.30
2019-05-19T01:44:41.817Z,7.30
2019-05-19T01:45:41.817Z,7.30
2019-05-19T01:46:41.749Z,7.30
2019-05-19T01:47:41.758Z,7.30
2019-05-19T01:48:41.748Z,7.30
2019-05-19T01:49:41.821Z,7.10
2019-05-19T01:50:41.750Z,7.10
2019-05-19T01:51:41.821Z,7.10
2019-05-19T01:52:41.762Z,7.10
2019-05-19T01:53:41.763Z,7.10
2019-05-19T01:54:41.825Z,7.10
2019-05-19T01:55:41.825Z,7.10
2019-05-19T01:56:41.825Z,7.10
2019-05-19T01:57:41.757Z,7.10
2019-05-19T01:58:41.877Z,7.10
2019-05-19T01:59:41.727Z,6.99
2019-05-19T02:00:41.825Z,6.99
2019-05-19T02:01:41.773Z,6.99
2019-05-19T02:02:41.810Z,6.99
2019-05-19T02:03:41.779Z,6.99
2019-05-19T02:04:41.826Z,6.99
2019-05-19T02:05:41.829Z,6.99
2019-05-19T02:06:46.103Z,6.99
2019-05-19T02:07:41.831Z,6.99
2019-05-19T02:08:41.775Z,6.99
2019-05-19T02:09:41.840Z,5.90
2019-05-19T02:10:41.760Z,5.90
2019-05-19T02:11:41.787Z,5.90
2019-05-19T02:12:41.826Z,5.90
2019-05-19T02:13:41.828Z,5.90
2019-05-19T02:14:41.746Z,5.90
2019-05-19T02:15:41.838Z,5.90
2019-05-19T02:16:41.792Z,5.90
2019-05-19T02:17:41.840Z,5.90
2019-05-19T02:18:41.839Z,5.90
2019-05-19T02:19:41.801Z,6.00
2019-05-19T02:20:41.741Z,6.00
2019-05-19T02:21:41.705Z,6.00
2019-05-19T02:22:41.784Z,6.00
2019-05-19T02:23:41.712Z,6.00
2019-05-19T02:24:41.706Z,6.00
2019-05-19T02:25:41.830Z,6.00
2019-05-19T02:26:41.776Z,6.00
2019-05-19T02:27:41.717Z,6.00
2019-05-19T02:28:41.814Z,6.00
2019-05-19T02:29:41.791Z,5.90
2019-05-19T02:30:41.792Z,5.90
2019-05-19T02:31:41.806Z,5.90
2019-05-19T02:32:41.795Z,5.90
2019-05-19T02:33:41.865Z,5.90
2019-05-19T02:34:41.865Z,5.90
2019-05-19T02:35:41.880Z,5.90
2019-05-19T02:36:41.883Z,5.90
2019-05-19T02:37:41.877Z,5.90
2019-05-19T02:38:41.803Z,5.90
2019-05-19T02:39:41.884Z,7.80
2019-05-19T02:40:41.871Z,7.80
2019-05-19T02:41:41.816Z,7.80
2019-05-19T02:42:41.880Z,7.80
2019-05-19T02:43:41.874Z,7.80
2019-05-19T02:44:41.881Z,7.80
2019-05-19T02:45:41.804Z,7.80
2019-05-19T02:46:41.820Z,7.80
2019-05-19T02:47:41.893Z,7.80
2019-05-19T02:48:41.906Z,7.80
2019-05-19T02:49:41.799Z,6.50
2019-05-19T02:50:51.427Z,6.50
2019-05-19T02:51:41.795Z,6.50
2019-05-19T02:52:41.890Z,6.50
2019-05-19T02:53:41.810Z,6.50
2019-05-19T02:54:41.799Z,6.50
2019-05-19T02:55:41.833Z,6.50
2019-05-19T02:56:41.870Z,6.50
2019-05-19T02:57:41.810Z,6.50
2019-05-19T02:58:41.882Z,6.50
2019-05-19T02:59:41.896Z,7.30
2019-05-19T03:00:41.967Z,7.30
2019-05-19T03:01:41.902Z,7.30
2019-05-19T03:02:41.781Z,7.30
2019-05-19T03:03:41.836Z,7.30
2019-05-19T03:04:41.888Z,7.30
2019-05-19T03:05:41.889Z,7.30
2019-05-19T03:06:41.843Z,7.30
2019-05-19T03:07:41.894Z,7.30
2019-05-19T03:08:41.900Z,7.30
2019-05-19T03:09:41.905Z,7.20
2019-05-19T03:10:41.905Z,7.20
2019-05-19T03:11:41.816Z,7.20
2019-05-19T03:12:41.890Z,7.20
2019-05-19T03:13:41.898Z,7.20
2019-05-19T03:14:41.885Z,7.20
2019-05-19T03:15:41.949Z,7.20
2019-05-19T03:16:41.827Z,7.20
2019-05-19T03:17:41.897Z,7.20
2019-05-19T03:18:41.897Z,7.20
2019-05-19T03:19:41.908Z,7.10
2019-05-19T03:20:41.832Z,7.10
2019-05-19T03:21:41.828Z,7.10
2019-05-19T03:22:41.832Z,7.10
2019-05-19T03:23:41.837Z,7.10
2019-05-19T03:24:41.918Z,7.10
2019-05-19T03:25:44.255Z,7.10
2019-05-19T03:26:41.905Z,7.10
2019-05-19T03:27:41.908Z,7.10
2019-05-19T03:28:41.902Z,7.10
2019-05-19T03:29:41.871Z,7.60
2019-05-19T03:30:41.854Z,7.60
2019-05-19T03:31:41.883Z,7.60
2019-05-19T03:32:41.967Z,7.60
2019-05-19T03:33:41.871Z,7.60
2019-05-19T03:34:41.873Z,7.60
2019-05-19T03:35:41.866Z,7.60
2019-05-19T03:36:41.845Z,7.60
2019-05-19T03:37:41.845Z,7.60
2019-05-19T03:38:41.910Z,7.60
2019-05-19T03:39:41.844Z,7.60
2019-05-19T03:40:41.796Z,7.20
2019-05-19T03:41:41.903Z,7.20
2019-05-19T03:42:41.778Z,7.20
2019-05-19T03:43:41.879Z,7.20
2019-05-19T03:44:41.801Z,7.20
2019-05-19T03:45:41.784Z,7.20
2019-05-19T03:46:41.824Z,7.20
2019-05-19T03:47:41.791Z,7.20
2019-05-19T03:48:41.867Z,7.20
2019-05-19T03:49:41.783Z,7.20
2019-05-19T03:50:41.923Z,8.70
2019-05-19T03:51:41.887Z,8.70
2019-05-19T03:52:41.932Z,8.70
2019-05-19T03:53:41.848Z,8.70
2019-05-19T03:54:41.923Z,8.70
2019-05-19T03:55:41.926Z,8.70
2019-05-19T03:56:41.943Z,8.70
2019-05-19T03:57:41.894Z,8.70
2019-05-19T03:58:41.853Z,8.70
2019-05-19T03:59:41.941Z,8.70
2019-05-19T04:00:41.838Z,8.70
2019-05-19T04:01:41.839Z,8.70
2019-05-19T04:02:41.854Z,8.70
2019-05-19T04:03:41.871Z,8.70
2019-05-19T04:04:41.854Z,8.70
2019-05-19T04:05:41.885Z,8.70
2019-05-19T04:06:41.843Z,8.70
2019-05-19T04:07:41.846Z,8.70
2019-05-19T04:08:41.930Z,8.70
2019-05-19T04:09:41.926Z,8.70
2019-05-19T04:10:41.867Z,7.70
2019-05-19T04:11:41.936Z,7.70
2019-05-19T04:12:41.930Z,7.70
2019-05-19T04:13:41.936Z,7.70
2019-05-19T04:14:41.949Z,7.70
2019-05-19T04:15:41.876Z,7.70
2019-05-19T04:16:41.990Z,7.70
2019-05-19T04:17:41.882Z,7.70
2019-05-19T04:18:41.879Z,7.70
2019-05-19T04:19:41.869Z,7.70
2019-05-19T04:20:41.864Z,10.40
2019-05-19T04:21:48.945Z,10.40
2019-05-19T04:22:41.876Z,10.40
2019-05-19T04:23:41.871Z,10.40
2019-05-19T04:24:41.932Z,10.40
2019-05-19T04:25:41.863Z,10.40
2019-05-19T04:26:41.937Z,10.40
2019-05-19T04:27:41.862Z,10.40
2019-05-19T04:28:41.882Z,10.40
2019-05-19T04:29:41.964Z,10.40
2019-05-19T04:30:41.878Z,7.70
2019-05-19T04:31:41.945Z,7.70
2019-05-19T04:32:41.887Z,7.70
2019-05-19T04:33:41.966Z,7.70
2019-05-19T04:34:41.891Z,7.70
2019-05-19T04:35:41.951Z,7.70
2019-05-19T04:36:41.954Z,7.70
2019-05-19T04:37:41.975Z,7.70
2019-05-19T04:38:41.957Z,7.70
2019-05-19T04:39:41.890Z,7.70
2019-05-19T04:40:41.958Z,8.30
2019-05-19T04:41:41.892Z,8.30
2019-05-19T04:42:41.895Z,8.30
2019-05-19T04:43:42.052Z,8.30
2019-05-19T04:44:41.892Z,8.30
2019-05-19T04:45:41.902Z,8.30
2019-05-19T04:46:41.959Z,8.30
2019-05-19T04:47:41.904Z,8.30
2019-05-19T04:48:41.961Z,8.30
2019-05-19T04:49:41.933Z,8.30
2019-05-19T04:50:41.976Z,9.90
2019-05-19T04:51:41.903Z,9.90
2019-05-19T04:52:41.983Z,9.90
2019-05-19T04:53:41.962Z,9.90
2019-05-19T04:54:41.898Z,9.90
2019-05-19T04:55:41.983Z,9.90
2019-05-19T04:56:41.976Z,9.90
2019-05-19T04:57:41.867Z,9.90
2019-05-19T04:58:41.975Z,9.90
2019-05-19T04:59:41.982Z,9.90
2019-05-19T05:00:41.995Z,9.80
2019-05-19T05:01:41.982Z,9.80
2019-05-19T05:02:41.898Z,9.80
2019-05-19T05:03:41.899Z,9.80
2019-05-19T05:04:41.996Z,9.80
2019-05-19T05:05:41.976Z,9.80
2019-05-19T05:06:41.986Z,9.80
2019-05-19T05:07:42.076Z,9.80
2019-05-19T05:08:41.908Z,9.80
2019-05-19T05:09:41.975Z,9.80
2019-05-19T05:10:41.981Z,10.30
2019-05-19T05:11:41.918Z,10.30
2019-05-19T05:12:41.995Z,10.30
2019-05-19T05:13:41.978Z,10.30
2019-05-19T05:14:41.905Z,10.30
2019-05-19T05:15:41.983Z,10.30
2019-05-19T05:16:41.980Z,10.30
2019-05-19T05:17:42.041Z,10.30
2019-05-19T05:18:41.917Z,10.30
2019-05-19T05:19:41.913Z,10.30
2019-05-19T05:20:41.988Z,12.90
2019-05-19T05:21:41.916Z,12.90
2019-05-19T05:22:41.939Z,12.90
2019-05-19T05:23:41.921Z,12.90
2019-05-19T05:24:42.003Z,12.90
2019-05-19T05:25:41.992Z,12.90
2019-05-19T05:26:41.917Z,12.90
2019-05-19T05:27:41.992Z,12.90
2019-05-19T05:28:41.982Z,12.90
2019-05-19T05:29:41.993Z,12.90
2019-05-19T05:30:41.903Z,15.50
2019-05-19T05:31:41.910Z,15.50
2019-05-19T05:32:41.982Z,15.50
2019-05-19T05:33:41.922Z,15.50
2019-05-19T05:34:41.908Z,15.50
2019-05-19T05:35:41.986Z,15.50
2019-05-19T05:36:41.915Z,15.50
2019-05-19T05:37:41.992Z,15.50
2019-05-19T05:38:41.986Z,15.50
2019-05-19T05:39:41.928Z,15.50
2019-05-19T05:40:42.013Z,10.80
2019-05-19T05:41:41.917Z,10.80
2019-05-19T05:42:41.990Z,10.80
2019-05-19T05:43:41.917Z,10.80
2019-05-19T05:44:41.998Z,10.80
2019-05-19T05:45:41.994Z,10.80
2019-05-19T05:46:41.921Z,10.80
2019-05-19T05:47:41.993Z,10.80
2019-05-19T05:48:41.922Z,10.80
2019-05-19T05:49:42.009Z,10.80
2019-05-19T05:50:41.944Z,11.20
2019-05-19T05:51:42.052Z,11.20
2019-05-19T05:52:42.024Z,11.20
2019-05-19T05:53:41.940Z,11.20
2019-05-19T05:54:42.011Z,11.20
2019-05-19T05:55:41.953Z,11.20
2019-05-19T05:56:42.111Z,11.20
2019-05-19T05:57:42.012Z,11.20
2019-05-19T05:58:41.942Z,11.20
2019-05-19T05:59:42.014Z,11.20
2019-05-19T06:00:42.020Z,14.30
2019-05-19T06:01:41.955Z,14.30
2019-05-19T06:02:41.950Z,14.30
2019-05-19T06:03:41.946Z,14.30
2019-05-19T06:04:42.039Z,14.30
2019-05-19T06:05:42.024Z,14.30
2019-05-19T06:06:41.934Z,14.30
2019-05-19T06:07:41.950Z,14.30
2019-05-19T06:08:42.023Z,14.30
2019-05-19T06:09:42.021Z,14.30
2019-05-19T06:10:42.049Z,10.80
2019-05-19T06:11:41.974Z,10.80
2019-05-19T06:12:41.960Z,10.80
2019-05-19T06:13:42.055Z,10.80
2019-05-19T06:14:42.034Z,10.80
2019-05-19T06:15:42.054Z,10.80
2019-05-19T06:16:42.033Z,10.80
2019-05-19T06:17:41.972Z,10.80
2019-05-19T06:18:42.029Z,10.80
2019-05-19T06:19:41.967Z,10.80
2019-05-19T06:20:41.960Z,11.30
2019-05-19T06:21:41.970Z,11.30
2019-05-19T06:22:55.058Z,11.30
2019-05-19T06:23:42.033Z,11.30
2019-05-19T06:24:42.033Z,11.30
2019-05-19T06:25:41.984Z,11.30
2019-05-19T06:26:41.960Z,11.30
2019-05-19T06:27:42.042Z,11.30
2019-05-19T06:28:41.975Z,11.30
2019-05-19T06:29:42.037Z,11.30
2019-05-19T06:30:42.034Z,12.80
2019-05-19T06:31:42.036Z,12.80
2019-05-19T06:32:42.046Z,12.80
2019-05-19T06:33:41.984Z,12.80
2019-05-19T06:34:41.971Z,12.80
2019-05-19T06:35:42.043Z,12.80
2019-05-19T06:36:42.003Z,12.80
2019-05-19T06:37:41.977Z,12.80
2019-05-19T06:38:42.058Z,12.80
2019-05-19T06:39:42.054Z,12.80
2019-05-19T06:40:41.995Z,14.60
2019-05-19T06:41:42.044Z,14.60
2019-05-19T06:42:42.046Z,14.60
2019-05-19T06:43:42.047Z,14.60
2019-05-19T06:44:41.975Z,14.60
2019-05-19T06:45:41.957Z,14.60
2019-05-19T06:46:42.066Z,14.60
2019-05-19T06:47:42.010Z,14.60
2019-05-19T06:48:42.049Z,14.60
2019-05-19T06:49:42.002Z,14.60
2019-05-19T06:50:42.064Z,12.30
2019-05-19T06:51:41.969Z,12.30
2019-05-19T06:52:42.045Z,12.30
2019-05-19T06:53:41.969Z,12.30
2019-05-19T06:54:42.044Z,12.30
2019-05-19T06:55:41.981Z,12.30
2019-05-19T06:56:41.974Z,12.30
2019-05-19T06:57:42.064Z,12.30
2019-05-19T06:58:41.977Z,12.30
2019-05-19T06:59:41.973Z,12.30
2019-05-19T07:00:42.044Z,13.70
2019-05-19T07:01:42.049Z,13.70
2019-05-19T07:02:42.017Z,13.70
2019-05-19T07:03:41.992Z,13.70
2019-05-19T07:04:41.953Z,13.70
2019-05-19T07:05:41.992Z,13.70
2019-05-19T07:06:41.971Z,13.70
2019-05-19T07:07:42.050Z,13.70
2019-05-19T07:08:42.047Z,13.70
2019-05-19T07:09:57.134Z,13.70
2019-05-19T07:10:42.004Z,10.70
2019-05-19T07:11:42.079Z,10.70
2019-05-19T07:12:42.026Z,10.70
2019-05-19T07:13:41.994Z,10.70
2019-05-19T07:14:42.073Z,10.70
2019-05-19T07:15:42.066Z,10.70
2019-05-19T07:16:42.030Z,10.70
2019-05-19T07:17:42.003Z,10.70
2019-05-19T07:18:42.078Z,10.70
2019-05-19T07:19:42.002Z,10.70
2019-05-19T07:20:41.958Z,10.30
2019-05-19T07:21:41.957Z,10.30
2019-05-19T07:22:41.977Z,10.30
2019-05-19T07:23:42.026Z,10.30
2019-05-19T07:24:42.059Z,10.30
2019-05-19T07:25:42.034Z,10.30
2019-05-19T07:26:41.962Z,10.30
2019-05-19T07:27:42.021Z,10.30
2019-05-19T07:28:42.005Z,10.30
2019-05-19T07:29:42.015Z,10.30
2019-05-19T07:30:42.009Z,9.60
2019-05-19T07:31:42.079Z,9.60
2019-05-19T07:32:42.084Z,9.60
2019-05-19T07:33:42.022Z,9.60
2019-05-19T07:34:42.010Z,9.60
2019-05-19T07:35:42.084Z,9.60
2019-05-19T07:36:42.097Z,9.60
2019-05-19T07:37:42.027Z,9.60
2019-05-19T07:38:42.028Z,9.60
2019-05-19T07:39:42.090Z,9.60
2019-05-19T07:40:42.032Z,9.00
2019-05-19T07:41:42.032Z,9.00
2019-05-19T07:42:41.986Z,9.00
2019-05-19T07:43:42.024Z,9.00
2019-05-19T07:44:45.199Z,9.00
2019-05-19T07:45:42.022Z,9.00
2019-05-19T07:46:41.978Z,9.00
2019-05-19T07:47:41.967Z,9.00
2019-05-19T07:48:41.940Z,9.00
2019-05-19T07:49:41.958Z,9.00
2019-05-19T07:50:42.079Z,10.60
2019-05-19T07:51:42.012Z,10.60
2019-05-19T07:52:42.008Z,10.60
2019-05-19T07:53:43.308Z,10.60
2019-05-19T07:54:42.017Z,10.60
2019-05-19T07:55:42.095Z,10.60
2019-05-19T07:56:42.017Z,10.60
2019-05-19T07:57:42.089Z,10.60
2019-05-19T07:58:42.094Z,10.60
2019-05-19T07:59:42.090Z,10.60
2019-05-19T08:00:42.040Z,9.30
2019-05-19T08:01:42.037Z,9.30
2019-05-19T08:02:42.118Z,9.30
2019-05-19T08:03:42.116Z,9.30
2019-05-19T08:04:42.035Z,9.30
2019-05-19T08:05:42.041Z,9.30
2019-05-19T08:06:42.111Z,9.30
2019-05-19T08:07:42.050Z,9.30
2019-05-19T08:08:42.114Z,9.30
2019-05-19T08:09:42.040Z,9.30
2019-05-19T08:10:42.120Z,9.20
2019-05-19T08:11:42.139Z,9.20
2019-05-19T08:12:42.160Z,9.20
2019-05-19T08:13:42.044Z,9.20
2019-05-19T08:14:42.116Z,9.20
2019-05-19T08:15:42.211Z,9.20
2019-05-19T08:16:42.042Z,9.20
2019-05-19T08:17:42.143Z,9.20
2019-05-19T08:18:42.126Z,9.20
2019-05-19T08:19:42.114Z,9.20
2019-05-19T08:20:42.045Z,9.99
2019-05-19T08:21:42.052Z,9.99
2019-05-19T08:22:42.064Z,9.99
2019-05-19T08:23:42.114Z,9.99
2019-05-19T08:24:42.052Z,9.99
2019-05-19T08:25:42.122Z,9.99
2019-05-19T08:26:42.122Z,9.99
2019-05-19T08:27:42.080Z,9.99
2019-05-19T08:28:42.056Z,9.99
2019-05-19T08:29:42.124Z,9.99
2019-05-19T08:30:42.060Z,8.10
2019-05-19T08:31:42.220Z,8.10
2019-05-19T08:32:42.121Z,8.10
2019-05-19T08:33:42.070Z,8.10
2019-05-19T08:34:42.054Z,8.10
2019-05-19T08:35:42.125Z,8.10
2019-05-19T08:36:42.145Z,8.10
2019-05-19T08:37:42.059Z,8.10
2019-05-19T08:38:42.107Z,8.10
2019-05-19T08:39:42.129Z,8.10
2019-05-19T08:40:42.072Z,7.50
2019-05-19T08:41:42.063Z,7.50
2019-05-19T08:42:42.138Z,7.50
2019-05-19T08:43:42.139Z,7.50
2019-05-19T08:44:42.159Z,7.50
2019-05-19T08:45:42.067Z,7.50
2019-05-19T08:46:42.144Z,7.50
2019-05-19T08:47:42.138Z,7.50
2019-05-19T08:48:42.074Z,7.50
2019-05-19T08:49:42.076Z,7.50
2019-05-19T08:50:42.135Z,7.00
2019-05-19T08:51:42.302Z,7.00
2019-05-19T08:52:42.130Z,7.00
2019-05-19T08:53:42.087Z,7.00
2019-05-19T08:54:42.084Z,7.00
2019-05-19T08:55:42.037Z,7.00
2019-05-19T08:56:42.121Z,7.00
2019-05-19T08:57:42.095Z,7.00
2019-05-19T08:58:42.095Z,7.00
2019-05-19T08:59:42.020Z,7.00
2019-05-19T09:00:42.074Z,8.50
2019-05-19T09:01:42.142Z,8.50
2019-05-19T09:02:42.162Z,8.50
2019-05-19T09:03:42.154Z,8.50
2019-05-19T09:04:42.153Z,8.50
2019-05-19T09:05:42.080Z,8.50
2019-05-19T09:06:42.151Z,8.50
2019-05-19T09:07:42.079Z,8.50
2019-05-19T09:08:42.149Z,8.50
2019-05-19T09:09:42.082Z,8.50
2019-05-19T09:10:42.086Z,9.40
2019-05-19T09:11:42.151Z,9.40
2019-05-19T09:12:42.150Z,9.40
2019-05-19T09:13:42.152Z,9.40
2019-05-19T09:14:42.147Z,9.40
2019-05-19T09:15:42.087Z,9.40
2019-05-19T09:16:42.114Z,9.40
2019-05-19T09:17:42.089Z,9.40
2019-05-19T09:18:42.106Z,9.40
2019-05-19T09:19:42.057Z,9.40
2019-05-19T09:20:42.005Z,9.40
2019-05-19T09:21:42.164Z,9.40
2019-05-19T09:23:42.083Z,9.40
2019-05-19T09:24:42.116Z,9.40
2019-05-19T09:25:42.110Z,9.40
2019-05-19T09:26:42.043Z,9.40
2019-05-19T09:27:42.084Z,9.40
2019-05-19T09:28:42.114Z,9.40
2019-05-19T09:29:42.116Z,9.40
2019-05-19T09:30:42.147Z,10.00
2019-05-19T09:31:42.119Z,10.00
2019-05-19T09:32:42.067Z,10.00
2019-05-19T09:33:42.095Z,10.00
2019-05-19T09:34:42.083Z,10.00
2019-05-19T09:35:42.059Z,10.00
2019-05-19T09:36:42.160Z,10.00
2019-05-19T09:37:42.071Z,10.00
2019-05-19T09:38:42.108Z,10.00
2019-05-19T09:39:42.098Z,10.00
2019-05-19T09:40:42.172Z,9.70
2019-05-19T09:41:42.172Z,9.70
2019-05-19T09:42:42.110Z,9.70
2019-05-19T09:43:42.118Z,9.70
2019-05-19T09:44:42.138Z,9.70
2019-05-19T09:45:42.110Z,9.70
2019-05-19T09:46:42.179Z,9.70
2019-05-19T09:47:42.110Z,9.70
2019-05-19T09:48:42.109Z,9.70
2019-05-19T09:49:42.113Z,9.70
2019-05-19T09:50:42.114Z,8.10
2019-05-19T09:51:42.156Z,8.10
2019-05-19T09:52:42.043Z,8.10
2019-05-19T09:53:42.111Z,8.10
2019-05-19T09:54:45.220Z,8.10
2019-05-19T09:55:42.055Z,8.10
2019-05-19T09:56:42.114Z,8.10
2019-05-19T09:57:42.109Z,8.10
2019-05-19T09:58:42.136Z,8.10
2019-05-19T09:59:42.132Z,8.10
2019-05-19T10:00:42.187Z,9.40
2019-05-19T10:01:42.198Z,9.40
2019-05-19T10:02:42.120Z,9.40
2019-05-19T10:03:42.196Z,9.40
2019-05-19T10:04:42.138Z,9.40
2019-05-19T10:05:42.199Z,9.40
2019-05-19T10:06:42.298Z,9.40
2019-05-19T10:07:42.194Z,9.40
2019-05-19T10:08:42.199Z,9.40
2019-05-19T10:09:42.093Z,9.40
2019-05-19T10:10:42.127Z,8.80
2019-05-19T10:11:42.133Z,8.80
2019-05-19T10:12:42.196Z,8.80
2019-05-19T10:13:42.202Z,8.80
2019-05-19T10:14:42.136Z,8.80
2019-05-19T10:15:42.196Z,8.80
2019-05-19T10:16:42.133Z,8.80
2019-05-19T10:17:42.268Z,8.80
2019-05-19T10:18:42.201Z,8.80
2019-05-19T10:19:42.205Z,8.80
2019-05-19T10:20:42.135Z,8.80
2019-05-19T10:21:42.142Z,10.30
2019-05-19T10:22:42.142Z,10.30
2019-05-19T10:23:42.133Z,10.30
2019-05-19T10:24:57.532Z,10.30
2019-05-19T10:25:42.138Z,10.30
2019-05-19T10:26:42.219Z,10.30
2019-05-19T10:27:42.139Z,10.30
2019-05-19T10:28:42.138Z,10.30
2019-05-19T10:29:42.217Z,10.30
2019-05-19T10:30:42.211Z,10.30
2019-05-19T10:31:42.213Z,8.40
2019-05-19T10:32:42.223Z,8.40
2019-05-19T10:33:42.147Z,8.40
2019-05-19T10:34:42.146Z,8.40
2019-05-19T10:35:42.215Z,8.40
2019-05-19T10:36:42.217Z,8.40
2019-05-19T10:37:42.227Z,8.40
2019-05-19T10:38:42.150Z,8.40
2019-05-19T10:39:42.217Z,8.40
2019-05-19T10:40:42.216Z,8.40
2019-05-19T10:41:42.203Z,7.30
2019-05-19T10:42:42.137Z,7.30
2019-05-19T10:43:42.177Z,7.30
2019-05-19T10:44:42.219Z,7.30
2019-05-19T10:45:42.124Z,7.30
2019-05-19T10:46:42.210Z,7.30
2019-05-19T10:47:42.216Z,7.30
2019-05-19T10:48:42.138Z,7.30
2019-05-19T10:49:43.105Z,7.30
2019-05-19T10:50:42.127Z,7.30
2019-05-19T10:51:42.146Z,7.20
2019-05-19T10:52:42.219Z,7.20
2019-05-19T10:53:42.216Z,7.20
2019-05-19T10:54:42.149Z,7.20
2019-05-19T10:55:42.142Z,7.20
2019-05-19T10:56:42.147Z,7.20
2019-05-19T10:57:42.153Z,7.20
2019-05-19T10:58:42.221Z,7.20
2019-05-19T10:59:42.227Z,7.20
2019-05-19T11:00:42.153Z,7.20
2019-05-19T11:01:42.236Z,8.90
2019-05-19T11:02:42.235Z,8.90
2019-05-19T11:03:42.166Z,8.90
2019-05-19T11:04:42.246Z,8.90
2019-05-19T11:05:42.253Z,8.90
2019-05-19T11:06:42.233Z,8.90
2019-05-19T11:07:42.171Z,8.90
2019-05-19T11:08:42.235Z,8.90
2019-05-19T11:09:42.183Z,8.90
2019-05-19T11:10:42.179Z,8.90
2019-05-19T11:11:42.226Z,10.10
2019-05-19T11:12:42.155Z,10.10
2019-05-19T11:13:42.156Z,10.10
2019-05-19T11:14:42.232Z,10.10
2019-05-19T11:15:42.171Z,10.10
2019-05-19T11:16:42.235Z,10.10
2019-05-19T11:17:42.197Z,10.10
2019-05-19T11:18:42.170Z,10.10
2019-05-19T11:19:42.235Z,10.10
2019-05-19T11:20:42.235Z,10.10
2019-05-19T11:21:42.182Z,8.70
2019-05-19T11:22:42.200Z,8.70
2019-05-19T11:23:42.252Z,8.70
2019-05-19T11:24:42.335Z,8.70
2019-05-19T11:25:50.974Z,8.70
2019-05-19T11:26:42.267Z,8.70
2019-05-19T11:27:42.186Z,8.70
2019-05-19T11:28:42.255Z,8.70
2019-05-19T11:29:42.250Z,8.70
2019-05-19T11:30:42.193Z,8.70
2019-05-19T11:31:42.266Z,10.40
2019-05-19T11:32:42.260Z,10.40
2019-05-19T11:33:42.197Z,10.40
2019-05-19T11:35:42.259Z,10.40
2019-05-19T11:36:42.268Z,10.40
2019-05-19T11:37:42.201Z,10.40
2019-05-19T11:38:42.261Z,10.40
2019-05-19T11:39:42.250Z,10.40
2019-05-19T11:40:42.191Z,10.40
2019-05-19T11:41:42.187Z,12.60
2019-05-19T11:42:42.258Z,12.60
2019-05-19T11:43:42.187Z,12.60
2019-05-19T11:44:42.186Z,12.60
2019-05-19T11:45:42.177Z,12.60
2019-05-19T11:46:42.165Z,12.60
2019-05-19T11:47:42.192Z,12.60
2019-05-19T11:48:42.189Z,12.60
2019-05-19T11:49:42.182Z,12.60
2019-05-19T11:50:42.522Z,12.60
2019-05-19T11:51:42.257Z,9.30
2019-05-19T11:52:42.261Z,9.30
2019-05-19T11:53:42.199Z,9.30
2019-05-19T11:54:42.189Z,9.30
2019-05-19T11:55:42.201Z,9.30
2019-05-19T11:56:42.323Z,9.30
2019-05-19T11:57:42.155Z,9.30
2019-05-19T11:58:42.199Z,9.30
2019-05-19T11:59:42.269Z,9.30
2019-05-19T12:00:42.196Z,9.30
2019-05-19T12:01:42.276Z,9.60
2019-05-19T12:02:42.212Z,9.60
2019-05-19T12:03:42.278Z,9.60
2019-05-19T12:04:42.292Z,9.60
2019-05-19T12:05:42.212Z,9.60
2019-05-19T12:06:42.283Z,9.60
2019-05-19T12:07:42.286Z,9.60
2019-05-19T12:08:42.281Z,9.60
2019-05-19T12:09:42.229Z,9.60
2019-05-19T12:10:42.282Z,9.60
2019-05-19T12:11:42.282Z,9.30
2019-05-19T12:12:42.349Z,9.30
2019-05-19T12:13:42.281Z,9.30
2019-05-19T12:14:42.286Z,9.30
2019-05-19T12:15:42.306Z,9.30
2019-05-19T12:16:42.233Z,9.30
2019-05-19T12:17:42.220Z,9.30
2019-05-19T12:18:42.292Z,9.30
2019-05-19T12:19:42.241Z,9.30
2019-05-19T12:20:42.306Z,9.30
2019-05-19T12:21:42.283Z,10.00
2019-05-19T12:22:42.165Z,10.00
2019-05-19T12:23:42.250Z,10.00
2019-05-19T12:24:42.221Z,10.00
2019-05-19T12:25:42.289Z,10.00
2019-05-19T12:26:42.220Z,10.00
2019-05-19T12:27:42.168Z,10.00
2019-05-19T12:28:42.191Z,10.00
2019-05-19T12:29:42.190Z,10.00
2019-05-19T12:30:42.288Z,10.00
2019-05-19T12:31:42.235Z,8.90
2019-05-19T12:32:42.288Z,8.90
2019-05-19T12:33:51.692Z,8.90
2019-05-19T12:34:42.308Z,8.90
2019-05-19T12:35:42.234Z,8.90
2019-05-19T12:36:42.245Z,8.90
2019-05-19T12:37:42.308Z,8.90
2019-05-19T12:38:42.239Z,8.90
2019-05-19T12:39:42.235Z,8.90
2019-05-19T12:40:42.307Z,8.90
2019-05-19T12:41:42.235Z,11.30
2019-05-19T12:42:42.246Z,11.30
2019-05-19T12:43:42.310Z,11.30
2019-05-19T12:44:42.381Z,11.30
2019-05-19T12:45:42.348Z,11.30
2019-05-19T12:46:42.310Z,11.30
2019-05-19T12:47:42.321Z,11.30
2019-05-19T12:48:42.315Z,11.30
2019-05-19T12:49:42.309Z,11.30
2019-05-19T12:50:42.310Z,11.30
2019-05-19T12:51:42.312Z,8.70
2019-05-19T12:52:42.318Z,8.70
2019-05-19T12:53:42.234Z,8.70
2019-05-19T12:54:42.191Z,8.70
2019-05-19T12:55:42.308Z,8.70
2019-05-19T12:56:42.307Z,8.70
2019-05-19T12:57:42.230Z,8.70
2019-05-19T12:58:42.314Z,8.70
2019-05-19T12:59:42.308Z,8.70
2019-05-19T13:00:42.314Z,8.70
2019-05-19T13:01:42.264Z,6.90
2019-05-19T13:02:42.259Z,6.90
2019-05-19T13:03:42.267Z,6.90
2019-05-19T13:04:42.328Z,6.90
2019-05-19T13:05:42.325Z,6.90
2019-05-19T13:06:42.286Z,6.90
2019-05-19T13:07:42.260Z,6.90
2019-05-19T13:08:42.354Z,6.90
2019-05-19T13:09:42.338Z,6.90
2019-05-19T13:10:42.329Z,6.90
2019-05-19T13:11:42.226Z,7.80
2019-05-19T13:12:42.264Z,7.80